createdAt,value
2023-11-18T00:00:13.944Z,101875.72
2023-11-18T00:02:40.891Z,101874.94
2023-11-18T00:05:08.706Z,101884.81
2023-11-18T00:07:35.587Z,101875.03
2023-11-18T00:10:10.588Z,101885.59
2023-11-18T00:12:38.072Z,101884.63
2023-11-18T00:15:05.498Z,101880.84
2023-11-18T00:17:33.234Z,101890.44
2023-11-18T00:19:59.925Z,101885.50
2023-11-18T00:22:26.593Z,101896.06
2023-11-18T00:24:53.473Z,101900.47
2023-11-18T00:27:20.223Z,101903.34
2023-11-18T00:30:06.330Z,101905.50
2023-11-18T00:32:33.591Z,101902.31
2023-11-18T00:35:00.438Z,101910.69
2023-11-18T00:37:27.188Z,101899.19
2023-11-18T00:39:54.050Z,101897.75
2023-11-18T00:42:20.642Z,101909.84
2023-11-18T00:44:47.303Z,101900.50
2023-11-18T00:47:14.026Z,101897.13
2023-11-18T00:49:41.287Z,101904.34
2023-11-18T00:52:08.010Z,101899.91
2023-11-18T00:54:36.200Z,101905.28
2023-11-18T00:57:03.006Z,101910.66
2023-11-18T00:59:29.758Z,101916.22
2023-11-18T01:01:56.368Z,101904.06
2023-11-18T01:04:22.906Z,101908.94
2023-11-18T01:06:49.577Z,101910.19
2023-11-18T01:09:17.408Z,101905.13
2023-11-18T01:12:07.004Z,101910.88
2023-11-18T01:14:30.620Z,101905.13
2023-11-18T01:16:57.267Z,101906.22
2023-11-18T01:19:24.853Z,101913.50
2023-11-18T01:21:54.285Z,101912.56
2023-11-18T01:24:21.291Z,101923.28
2023-11-18T01:26:47.941Z,101919.94
2023-11-18T01:29:14.653Z,101923.66
2023-11-18T01:31:51.991Z,101937.25
2023-11-18T01:34:23.173Z,101935.13
2023-11-18T01:36:50.977Z,101938.19
2023-11-18T01:39:20.580Z,101940.16
2023-11-18T01:41:47.325Z,101948.56
2023-11-18T01:44:16.518Z,101957.94
2023-11-18T01:46:46.505Z,101956.75
2023-11-18T01:49:15.198Z,101960.16
2023-11-18T01:51:43.949Z,101963.38
2023-11-18T01:54:20.671Z,101969.25
2023-11-18T01:56:49.132Z,101955.38
2023-11-18T01:59:19.913Z,101966.34
2023-11-18T02:01:55.309Z,101961.34
2023-11-18T02:04:22.864Z,101965.13
2023-11-18T02:06:50.700Z,101968.78
2023-11-18T02:09:28.594Z,101959.09
2023-11-18T02:12:24.910Z,101969.63
2023-11-18T02:14:52.328Z,101961.69
2023-11-18T02:17:21.531Z,101961.69
2023-11-18T02:19:48.326Z,101960.91
2023-11-18T02:22:15.462Z,101959.78
2023-11-18T02:24:42.845Z,101949.78
2023-11-18T02:27:12.983Z,101953.16
2023-11-18T02:29:43.584Z,101950.38
2023-11-18T02:32:14.065Z,101953.94
2023-11-18T02:34:44.069Z,101950.19
2023-11-18T02:37:11.664Z,101958.50
2023-11-18T02:39:42.023Z,101963.09
2023-11-18T02:42:09.334Z,101962.38
2023-11-18T02:44:39.610Z,101952.72
2023-11-18T02:47:06.623Z,101946.59
2023-11-18T02:49:35.789Z,101966.19
2023-11-18T02:52:03.698Z,101962.53
2023-11-18T02:54:30.271Z,101945.03
2023-11-18T02:56:57.465Z,101944.53
2023-11-18T02:59:23.981Z,101935.81
2023-11-18T03:01:56.076Z,101939.25
2023-11-18T03:04:25.170Z,101953.56
2023-11-18T03:06:51.840Z,101963.59
2023-11-18T03:09:19.881Z,101956.78
2023-11-18T03:11:46.748Z,101953.50
2023-11-18T03:14:13.544Z,101968.78
2023-11-18T03:16:40.439Z,101968.84
2023-11-18T03:19:08.108Z,101965.41
2023-11-18T03:21:34.706Z,101969.13
2023-11-18T03:24:01.273Z,101965.47
2023-11-18T03:26:27.804Z,101972.47
2023-11-18T03:28:54.442Z,101968.94
2023-11-18T03:31:21.126Z,101968.16
2023-11-18T03:33:47.800Z,101962.19
2023-11-18T03:36:14.418Z,101971.34
2023-11-18T03:38:41.590Z,101968.84
2023-11-18T03:41:09.859Z,101966.53
2023-11-18T03:43:36.509Z,101971.97
2023-11-18T03:46:03.291Z,101956.72
2023-11-18T03:48:29.961Z,101969.91
2023-11-18T03:50:56.497Z,101975.91
2023-11-18T03:53:23.131Z,101966.06
2023-11-18T03:55:49.807Z,101975.97
2023-11-18T03:58:16.393Z,101982.41
2023-11-18T04:00:42.982Z,101982.66
2023-11-18T04:03:10.998Z,101994.41
2023-11-18T04:05:40.136Z,101988.16
2023-11-18T04:08:07.643Z,101989.19
2023-11-18T04:10:34.254Z,101993.69
2023-11-18T04:13:00.921Z,101999.97
2023-11-18T04:15:28.015Z,101989.28
2023-11-18T04:17:54.742Z,101982.28
2023-11-18T04:20:21.453Z,101985.03
2023-11-18T04:22:48.078Z,101976.09
2023-11-18T04:25:14.742Z,101986.25
2023-11-18T04:27:44.408Z,101979.25
2023-11-18T04:30:14.121Z,101986.56
2023-11-18T04:32:44.029Z,101983.03
2023-11-18T04:35:12.981Z,101982.78
2023-11-18T04:37:44.174Z,101981.81
2023-11-18T04:40:12.126Z,101979.16
2023-11-18T04:42:39.897Z,101995.19
2023-11-18T04:45:07.222Z,101994.34
2023-11-18T04:47:34.121Z,102001.44
2023-11-18T04:50:00.918Z,101996.88
2023-11-18T04:52:28.149Z,101998.66
2023-11-18T04:54:55.123Z,101996.09
2023-11-18T04:57:21.839Z,101991.66
2023-11-18T04:59:50.476Z,101991.66
2023-11-18T05:02:17.112Z,101984.50
2023-11-18T05:04:43.854Z,101987.03
2023-11-18T05:07:10.488Z,102000.13
2023-11-18T05:09:38.589Z,101990.22
2023-11-18T05:12:05.925Z,101985.91
2023-11-18T05:14:33.667Z,101990.47
2023-11-18T05:17:00.303Z,102006.59
2023-11-18T05:19:27.017Z,102003.31
2023-11-18T05:21:55.243Z,102008.28
2023-11-18T05:24:21.880Z,102008.84
2023-11-18T05:26:48.488Z,101994.75
2023-11-18T05:29:17.858Z,102003.50
2023-11-18T05:31:44.972Z,102006.09
2023-11-18T05:34:11.580Z,102003.41
2023-11-18T05:36:38.994Z,101999.78
2023-11-18T05:39:11.908Z,101994.25
2023-11-18T05:41:40.988Z,101997.81
2023-11-18T05:44:10.414Z,102001.28
2023-11-18T05:46:37.245Z,102001.97
2023-11-18T05:49:09.363Z,102003.31
2023-11-18T05:51:36.382Z,102000.47
2023-11-18T05:54:03.189Z,102002.03
2023-11-18T05:56:29.781Z,101996.69
2023-11-18T05:58:56.530Z,101992.97
2023-11-18T06:01:23.796Z,101991.00
2023-11-18T06:03:51.516Z,102000.75
2023-11-18T06:06:22.099Z,101999.81
2023-11-18T06:08:51.302Z,102000.13
2023-11-18T06:11:20.310Z,102002.97
2023-11-18T06:13:51.863Z,102012.13
2023-11-18T06:16:23.087Z,102019.50
2023-11-18T06:18:51.625Z,102025.81
2023-11-18T06:21:19.919Z,102026.59
2023-11-18T06:23:48.740Z,102029.09
2023-11-18T06:26:16.330Z,102032.72
2023-11-18T06:28:44.906Z,102034.38
2023-11-18T06:31:12.650Z,102039.47
2023-11-18T06:33:44.770Z,102025.91
2023-11-18T06:36:14.767Z,102036.28
2023-11-18T06:38:41.953Z,102040.47
2023-11-18T06:41:13.517Z,102041.16
2023-11-18T06:43:56.920Z,102042.78
2023-11-18T06:46:26.177Z,102048.91
2023-11-18T06:48:56.645Z,102050.69
2023-11-18T06:51:26.188Z,102053.28
2023-11-18T06:53:53.214Z,102058.50
2023-11-18T06:56:19.835Z,102067.28
2023-11-18T06:58:46.386Z,102064.44
2023-11-18T07:01:16.888Z,102060.72
2023-11-18T07:03:44.879Z,102067.75
2023-11-18T07:06:11.896Z,102063.94
2023-11-18T07:08:38.511Z,102070.69
2023-11-18T07:11:07.096Z,102065.16
2023-11-18T07:13:37.086Z,102074.94
2023-11-18T07:16:05.233Z,102076.66
2023-11-18T07:18:35.018Z,102096.41
2023-11-18T07:21:04.536Z,102092.97
2023-11-18T07:23:31.135Z,102087.69
2023-11-18T07:25:58.934Z,102093.81
2023-11-18T07:28:25.657Z,102092.63
2023-11-18T07:30:53.561Z,102094.03
2023-11-18T07:33:20.799Z,102098.97
2023-11-18T07:35:51.923Z,102100.38
2023-11-18T07:38:21.469Z,102095.63
2023-11-18T07:40:48.792Z,102091.75
2023-11-18T07:43:16.427Z,102097.00
2023-11-18T07:45:48.298Z,102096.75
2023-11-18T07:48:18.243Z,102105.31
2023-11-18T07:50:45.740Z,102105.06
2023-11-18T07:53:12.759Z,102105.75
2023-11-18T07:55:42.225Z,102115.41
2023-11-18T07:58:12.205Z,102112.66
2023-11-18T08:00:40.057Z,102117.84
2023-11-18T08:03:12.492Z,102114.88
2023-11-18T08:05:44.802Z,102112.72
2023-11-18T08:08:18.080Z,102113.16
2023-11-18T08:10:45.762Z,102114.53
2023-11-18T08:13:12.621Z,102118.69
2023-11-18T08:15:41.047Z,102122.66
2023-11-18T08:18:08.493Z,102127.56
2023-11-18T08:20:35.131Z,102124.34
2023-11-18T08:23:01.812Z,102119.31
2023-11-18T08:25:28.449Z,102124.25
2023-11-18T08:27:55.127Z,102139.91
2023-11-18T08:30:22.098Z,102142.97
2023-11-18T08:32:49.250Z,102143.56
2023-11-18T08:35:16.692Z,102147.50
2023-11-18T08:37:44.126Z,102149.81
2023-11-18T08:40:15.962Z,102143.88
2023-11-18T08:42:51.572Z,102147.09
2023-11-18T08:45:34.170Z,102152.84
2023-11-18T08:48:03.091Z,102149.66
2023-11-18T08:50:30.074Z,102147.47
2023-11-18T08:53:00.471Z,102134.63
2023-11-18T08:55:43.692Z,102131.56
2023-11-18T08:58:23.328Z,102132.88
2023-11-18T09:00:51.461Z,102129.72
2023-11-18T09:03:25.675Z,102117.63
2023-11-18T09:05:58.292Z,102117.13
2023-11-18T09:08:30.818Z,102121.91
2023-11-18T09:10:58.260Z,102125.75
2023-11-18T09:13:32.639Z,102121.50
2023-11-18T09:16:03.823Z,102124.47
2023-11-18T09:18:31.907Z,102132.88
2023-11-18T09:21:02.772Z,102135.16
2023-11-18T09:23:30.908Z,102139.06
2023-11-18T09:25:57.590Z,102139.59
2023-11-18T09:28:25.652Z,102127.59
2023-11-18T09:30:54.850Z,102140.63
2023-11-18T09:33:34.034Z,102141.25
2023-11-18T09:36:01.172Z,102149.91
2023-11-18T09:38:36.758Z,102155.94
2023-11-18T09:41:08.406Z,102167.34
2023-11-18T09:43:44.506Z,102178.66
2023-11-18T09:46:15.107Z,102172.97
2023-11-18T09:48:48.195Z,102170.94
2023-11-18T09:51:24.349Z,102175.91
2023-11-18T09:53:55.608Z,102165.47
2023-11-18T09:56:58.246Z,102183.88
2023-11-18T09:59:37.498Z,102181.50
2023-11-18T10:02:11.828Z,102178.31
2023-11-18T10:04:40.496Z,102172.41
2023-11-18T10:07:08.500Z,102175.31
2023-11-18T10:09:41.151Z,102172.84
2023-11-18T10:12:13.682Z,102165.94
2023-11-18T10:14:47.032Z,102162.78
2023-11-18T10:17:15.999Z,102161.38
2023-11-18T10:20:00.903Z,102152.53
2023-11-18T10:22:30.341Z,102147.97
2023-11-18T10:24:57.867Z,102142.53
2023-11-18T10:27:28.962Z,102147.97
2023-11-18T10:29:59.616Z,102141.81
2023-11-18T10:32:30.500Z,102147.50
2023-11-18T10:34:58.425Z,102136.97
2023-11-18T10:37:26.763Z,102134.72
2023-11-18T10:39:53.393Z,102130.91
2023-11-18T10:42:20.011Z,102131.66
2023-11-18T10:44:58.481Z,102136.81
2023-11-18T10:47:28.594Z,102130.44
2023-11-18T10:49:57.313Z,102130.31
2023-11-18T10:52:25.289Z,102120.41
2023-11-18T10:54:55.694Z,102112.03
2023-11-18T10:57:23.603Z,102119.94
2023-11-18T11:00:04.934Z,102126.91
2023-11-18T11:02:36.674Z,102129.38
2023-11-18T11:05:03.584Z,102126.56
2023-11-18T11:07:31.075Z,102118.34
2023-11-18T11:09:57.890Z,102130.00
2023-11-18T11:12:26.634Z,102125.22
2023-11-18T11:15:01.352Z,102142.91
2023-11-18T11:17:35.125Z,102134.69
2023-11-18T11:20:24.688Z,102135.41
2023-11-18T11:23:23.426Z,102130.00
2023-11-18T11:26:15.030Z,102130.75
2023-11-18T11:28:47.947Z,102133.25
2023-11-18T11:31:40.031Z,102139.28
2023-11-18T11:34:14.290Z,102149.94
2023-11-18T11:36:47.832Z,102147.00
2023-11-18T11:39:20.982Z,102151.19
2023-11-18T11:41:57.600Z,102141.13
2023-11-18T11:44:31.794Z,102142.84
2023-11-18T11:47:01.927Z,102143.56
2023-11-18T11:49:40.686Z,102139.91
2023-11-18T11:52:29.191Z,102141.50
2023-11-18T11:55:04.046Z,102141.38
2023-11-18T11:57:34.072Z,102138.53
2023-11-18T12:00:18.538Z,102127.63
2023-11-18T12:02:55.877Z,102124.94
2023-11-18T12:05:27.542Z,102108.59
2023-11-18T12:07:57.672Z,102109.47
2023-11-18T12:10:29.554Z,102116.72
2023-11-18T12:13:17.768Z,102094.22
2023-11-18T12:16:03.076Z,102084.03
2023-11-18T12:18:32.935Z,102092.13
2023-11-18T12:21:03.198Z,102102.09
2023-11-18T12:23:31.660Z,102102.09
2023-11-18T12:26:04.417Z,102086.84
2023-11-18T12:28:46.692Z,102086.84
2023-11-18T12:31:18.498Z,102079.75
2023-11-18T12:33:54.480Z,102085.16
2023-11-18T12:36:21.104Z,102084.41
2023-11-18T12:39:14.972Z,102076.56
2023-11-18T12:41:42.025Z,102069.69
2023-11-18T12:44:25.171Z,102079.00
2023-11-18T12:46:56.670Z,102088.34
2023-11-18T12:49:25.218Z,102083.16
2023-11-18T12:51:53.599Z,102083.16
2023-11-18T12:54:23.608Z,102094.97
2023-11-18T12:56:54.944Z,102093.97
2023-11-18T12:59:25.282Z,102103.81
2023-11-18T13:01:55.025Z,102099.34
2023-11-18T13:04:22.067Z,102103.91
2023-11-18T13:06:49.189Z,102109.31
2023-11-18T13:09:26.029Z,102103.91
2023-11-18T13:12:03.008Z,102095.91
2023-11-18T13:14:36.969Z,102089.78
2023-11-18T13:17:07.984Z,102090.03
2023-11-18T13:19:35.630Z,102089.19
2023-11-18T13:22:09.182Z,102097.41
2023-11-18T13:24:47.850Z,102092.97
2023-11-18T13:27:17.274Z,102091.38
2023-11-18T13:29:51.556Z,102073.56
2023-11-18T13:32:19.544Z,102076.38
2023-11-18T13:34:47.603Z,102075.66
2023-11-18T13:37:18.162Z,102065.84
2023-11-18T13:39:48.489Z,102065.97
2023-11-18T13:42:29.412Z,102066.06
2023-11-18T13:45:09.354Z,102064.38
2023-11-18T13:47:36.735Z,102059.06
2023-11-18T13:50:08.132Z,102059.19
2023-11-18T13:52:35.643Z,102061.16
2023-11-18T13:55:02.422Z,102064.09
2023-11-18T13:57:29.109Z,102066.06
2023-11-18T13:59:55.906Z,102060.75
2023-11-18T14:02:22.750Z,102068.00
2023-11-18T14:04:51.374Z,102069.84
2023-11-18T14:07:18.475Z,102064.56
2023-11-18T14:09:46.536Z,102057.44
2023-11-18T14:12:14.665Z,102056.69
2023-11-18T14:14:41.233Z,102054.25
2023-11-18T14:17:09.601Z,102053.63
2023-11-18T14:19:36.302Z,102063.81
2023-11-18T14:22:08.076Z,102064.88
2023-11-18T14:24:35.389Z,102059.75
2023-11-18T14:27:02.605Z,102076.03
2023-11-18T14:29:30.516Z,102078.00
2023-11-18T14:31:57.371Z,102067.31
2023-11-18T14:34:25.389Z,102070.25
2023-11-18T14:36:52.177Z,102074.78
2023-11-18T14:39:19.268Z,102074.66
2023-11-18T14:41:49.337Z,102062.91
2023-11-18T14:44:15.964Z,102062.91
2023-11-18T14:46:42.631Z,102062.06
2023-11-18T14:49:11.342Z,102075.66
2023-11-18T14:51:38.449Z,102069.25
2023-11-18T14:54:06.931Z,102072.09
2023-11-18T14:56:33.685Z,102070.34
2023-11-18T14:59:01.147Z,102075.00
2023-11-18T15:01:27.904Z,102087.75
2023-11-18T15:03:54.665Z,102087.13
2023-11-18T15:06:28.237Z,102088.19
2023-11-18T15:08:55.312Z,102083.88
2023-11-18T15:11:23.398Z,102090.50
2023-11-18T15:13:51.416Z,102092.44
2023-11-18T15:16:20.090Z,102089.97
2023-11-18T15:18:48.666Z,102080.41
2023-11-18T15:21:16.459Z,102078.81
2023-11-18T15:23:43.649Z,102078.16
2023-11-18T15:26:11.185Z,102075.81
2023-11-18T15:28:38.283Z,102070.75
2023-11-18T15:31:05.635Z,102059.47
2023-11-18T15:33:32.869Z,102065.94
2023-11-18T15:35:59.887Z,102059.91
2023-11-18T15:38:26.882Z,102050.13
2023-11-18T15:40:54.643Z,102043.97
2023-11-18T15:43:23.016Z,102056.81
2023-11-18T15:45:50.071Z,102057.91
2023-11-18T15:48:17.016Z,102041.94
2023-11-18T15:50:43.883Z,102059.09
2023-11-18T15:53:15.037Z,102053.06
2023-11-18T15:55:44.883Z,102052.44
2023-11-18T15:58:11.922Z,102052.44
2023-11-18T16:00:38.790Z,102043.72
2023-11-18T16:03:09.549Z,102066.25
2023-11-18T16:05:37.147Z,102055.69
2023-11-18T16:08:05.729Z,102067.44
2023-11-18T16:10:32.659Z,102076.50
2023-11-18T16:13:00.070Z,102071.13
2023-11-18T16:15:28.511Z,102078.31
2023-11-18T16:17:58.546Z,102074.00
2023-11-18T16:20:27.709Z,102072.31
2023-11-18T16:22:55.340Z,102065.19
2023-11-18T16:25:24.580Z,102064.34
2023-11-18T16:27:52.673Z,102071.44
2023-11-18T16:30:30.833Z,102066.16
2023-11-18T16:32:58.355Z,102069.72
2023-11-18T16:35:26.907Z,102072.41
2023-11-18T16:37:53.882Z,102059.19
2023-11-18T16:40:21.968Z,102069.06
2023-11-18T16:42:54.608Z,102059.19
2023-11-18T16:45:22.043Z,102059.19
2023-11-18T16:47:52.366Z,102053.78
2023-11-18T16:50:20.028Z,102054.66
2023-11-18T16:52:46.876Z,102054.84
2023-11-18T16:55:13.512Z,102058.22
2023-11-18T16:57:40.522Z,102064.59
2023-11-18T17:00:21.007Z,102068.00
2023-11-18T17:02:49.029Z,102063.72
2023-11-18T17:05:17.663Z,102073.63
2023-11-18T17:07:44.539Z,102076.09
2023-11-18T17:10:13.958Z,102070.59
2023-11-18T17:12:44.651Z,102073.69
2023-11-18T17:15:14.426Z,102070.53
2023-11-18T17:17:42.840Z,102078.81
2023-11-18T17:20:10.838Z,102064.72
2023-11-18T17:22:41.286Z,102062.16
2023-11-18T17:25:14.570Z,102073.97
2023-11-18T17:27:41.627Z,102071.50
2023-11-18T17:30:13.900Z,102076.19
2023-11-18T17:32:43.537Z,102074.59
2023-11-18T17:35:11.066Z,102088.22
2023-11-18T17:37:37.699Z,102087.00
2023-11-18T17:40:04.842Z,102086.78
2023-11-18T17:42:32.123Z,102090.81
2023-11-18T17:44:58.930Z,102084.13
2023-11-18T17:47:29.464Z,102075.69
2023-11-18T17:49:56.268Z,102067.34
2023-11-18T17:52:22.900Z,102063.34
2023-11-18T17:54:49.490Z,102076.19
2023-11-18T17:57:16.305Z,102089.91
2023-11-18T17:59:43.069Z,102092.91
2023-11-18T18:02:12.695Z,102088.59
2023-11-18T18:04:40.175Z,102099.72
2023-11-18T18:07:06.805Z,102099.91
2023-11-18T18:09:33.442Z,102100.28
2023-11-18T18:12:00.096Z,102091.47
2023-11-18T18:14:27.673Z,102102.50
2023-11-18T18:16:54.998Z,102094.72
2023-11-18T18:19:22.366Z,102092.25
2023-11-18T18:21:48.957Z,102104.91
2023-11-18T18:24:15.620Z,102103.16
2023-11-18T18:26:42.268Z,102101.44
2023-11-18T18:29:08.890Z,102099.72
2023-11-18T18:31:35.525Z,102081.13
2023-11-18T18:34:02.156Z,102085.72
2023-11-18T18:36:28.743Z,102089.56
2023-11-18T18:38:55.386Z,102088.03
2023-11-18T18:41:22.069Z,102085.63
2023-11-18T18:43:48.782Z,102091.16
2023-11-18T18:46:16.310Z,102093.00
2023-11-18T18:48:43.031Z,102089.53
2023-11-18T18:51:10.813Z,102089.81
2023-11-18T18:53:37.508Z,102083.19
2023-11-18T18:56:06.299Z,102090.56
2023-11-18T18:58:34.233Z,102093.25
2023-11-18T19:01:00.843Z,102086.06
2023-11-18T19:03:27.805Z,102084.34
2023-11-18T19:05:54.399Z,102087.97
2023-11-18T19:08:21.200Z,102085.38
2023-11-18T19:10:48.288Z,102083.66
2023-11-18T19:13:15.176Z,102089.09
2023-11-18T19:15:41.926Z,102091.88
2023-11-18T19:18:09.107Z,102093.69
2023-11-18T19:20:36.778Z,102089.31
2023-11-18T19:23:03.502Z,102092.06
2023-11-18T19:25:30.193Z,102097.50
2023-11-18T19:27:56.813Z,102088.53
2023-11-18T19:30:23.471Z,102091.09
2023-11-18T19:32:53.246Z,102100.03
2023-11-18T19:35:19.868Z,102100.03
2023-11-18T19:37:49.703Z,102102.72
2023-11-18T19:40:16.463Z,102109.97
2023-11-18T19:42:43.724Z,102112.06
2023-11-18T19:45:10.492Z,102102.31
2023-11-18T19:47:37.673Z,102102.38
2023-11-18T19:50:05.109Z,102105.16
2023-11-18T19:52:32.375Z,102101.69
2023-11-18T19:54:59.355Z,102095.56
2023-11-18T19:57:25.956Z,102093.75
2023-11-18T19:59:54.060Z,102083.91
2023-11-18T20:02:20.725Z,102074.09
2023-11-18T20:04:47.740Z,102077.72
2023-11-18T20:07:14.673Z,102084.03
2023-11-18T20:09:41.254Z,102093.03
2023-11-18T20:12:09.297Z,102084.22
2023-11-18T20:14:37.896Z,102091.69
2023-11-18T20:17:04.737Z,102093.59
2023-11-18T20:19:33.772Z,102099.13
2023-11-18T20:22:04.195Z,102098.53
2023-11-18T20:24:30.929Z,102097.84
2023-11-18T20:26:57.607Z,102096.22
2023-11-18T20:29:24.290Z,102098.13
2023-11-18T20:31:51.001Z,102103.63
2023-11-18T20:34:19.311Z,102102.28
2023-11-18T20:36:46.362Z,102095.78
2023-11-18T20:39:18.297Z,102089.34
2023-11-18T20:41:45.802Z,102098.84
2023-11-18T20:44:13.583Z,102094.88
2023-11-18T20:46:40.317Z,102097.00
2023-11-18T20:49:06.950Z,102098.28
2023-11-18T20:51:33.650Z,102102.09
2023-11-18T20:54:03.861Z,102105.72
2023-11-18T20:56:32.144Z,102093.34
2023-11-18T20:59:01.923Z,102099.81
2023-11-18T21:01:30.251Z,102093.69
2023-11-18T21:03:57.096Z,102101.81
2023-11-18T21:06:23.867Z,102099.22
2023-11-18T21:08:50.588Z,102097.47
2023-11-18T21:11:17.254Z,102098.44
2023-11-18T21:13:43.887Z,102097.66
2023-11-18T21:16:10.730Z,102106.72
2023-11-18T21:18:38.034Z,102111.28
2023-11-18T21:21:06.036Z,102114.03
2023-11-18T21:23:32.758Z,102105.16
2023-11-18T21:25:59.592Z,102107.91
2023-11-18T21:28:29.103Z,102104.38
2023-11-18T21:30:57.246Z,102107.97
2023-11-18T21:33:24.174Z,102102.63
2023-11-18T21:35:52.292Z,102106.28
2023-11-18T21:38:20.057Z,102097.28
2023-11-18T21:40:47.556Z,102105.31
2023-11-18T21:43:14.344Z,102105.31
2023-11-18T21:45:41.066Z,102115.69
2023-11-18T21:48:07.718Z,102109.22
2023-11-18T21:50:35.038Z,102093.00
2023-11-18T21:53:03.392Z,102093.88
2023-11-18T21:55:30.196Z,102096.38
2023-11-18T21:57:56.747Z,102095.94
2023-11-18T22:00:25.322Z,102098.22
2023-11-18T22:02:53.374Z,102103.13
2023-11-18T22:05:20.431Z,102093.13
2023-11-18T22:07:48.161Z,102091.22
2023-11-18T22:10:17.682Z,102092.00
2023-11-18T22:12:44.542Z,102093.63
2023-11-18T22:15:14.526Z,102089.84
2023-11-18T22:17:44.380Z,102079.97
2023-11-18T22:20:13.969Z,102081.03
2023-11-18T22:22:41.103Z,102079.41
2023-11-18T22:25:08.212Z,102079.47
2023-11-18T22:27:41.510Z,102083.03
2023-11-18T22:30:09.392Z,102080.34
2023-11-18T22:32:38.902Z,102091.06
2023-11-18T22:35:08.337Z,102084.03
2023-11-18T22:37:37.766Z,102090.38
2023-11-18T22:40:10.089Z,102092.25
2023-11-18T22:42:38.882Z,102093.13
2023-11-18T22:45:06.193Z,102095.72
2023-11-18T22:47:32.979Z,102096.56
2023-11-18T22:50:00.996Z,102094.75
2023-11-18T22:52:27.855Z,102102.78
2023-11-18T22:54:54.547Z,102095.72
2023-11-18T22:57:21.138Z,102101.06
2023-11-18T22:59:47.748Z,102100.22
2023-11-18T23:02:17.519Z,102104.00
2023-11-18T23:04:46.473Z,102101.34
2023-11-18T23:07:15.706Z,102112.91
2023-11-18T23:09:42.739Z,102116.44
2023-11-18T23:12:10.600Z,102114.63
2023-11-18T23:14:38.028Z,102110.16
2023-11-18T23:19:41.704Z,102117.16
2023-11-18T23:22:14.797Z,102106.44
2023-11-18T23:24:41.453Z,102107.28
2023-11-18T23:27:08.261Z,102110.94
2023-11-18T23:29:35.006Z,102119.03
2023-11-18T23:32:01.821Z,102120.75
2023-11-18T23:34:28.500Z,102117.16
2023-11-18T23:36:55.117Z,102104.53
2023-11-18T23:39:29.851Z,102101.84
2023-11-18T23:41:56.831Z,102108.16
2023-11-18T23:44:25.452Z,102105.56
2023-11-18T23:46:53.487Z,102104.81
2023-11-18T23:49:20.320Z,102103.13
2023-11-18T23:51:47.357Z,102101.50
2023-11-18T23:54:14.209Z,102092.59
2023-11-18T23:56:40.874Z,102093.47
2023-11-18T23:59:08.287Z,102089.16
